Terminal Aerodrome Forecast
Issued by NWS

Home | Current Version | Previous Version | Text Only | Print | Product List | Glossary Off
Versions: 1 2 3 4 5 6 7 8 9 10 11 12 13 14 15 16 17 18 19 20 21 22 23 24 25 26 27 28 29

922
FTUS43 KICT 261806 AAA
TAFHUT
TAF AMD
KHUT 261806Z 2618/2718 18013KT P6SM VCTS BKN035CB
      TEMPO 2618/2622 1SM +TSRA OVC015CB
     FM270600 14007KT P6SM OVC015
      TEMPO 2710/2714 OVC008=

USA.gov is the U.S. government's official web portal to all federal, state and local government web resources and services.